createdAt,value
2022-10-23T00:01:24.624Z,99910.97
2022-10-23T00:03:55.373Z,99914.72
2022-10-23T00:06:23.324Z,99914.19
2022-10-23T00:08:51.219Z,99923.25
2022-10-23T00:11:22.392Z,99922.44
2022-10-23T00:13:51.201Z,99916.75
2022-10-23T00:16:19.217Z,99921.53
2022-10-23T00:18:46.875Z,99915.16
2022-10-23T00:21:15.863Z,99916.03
2022-10-23T00:23:44.522Z,99916.03
2022-10-23T00:26:12.835Z,99910.56
2022-10-23T00:28:40.542Z,99917.63
2022-10-23T00:31:08.459Z,99914.56
2022-10-23T00:33:41.579Z,99918.72
2022-10-23T00:36:11.837Z,99920.03
2022-10-23T00:38:39.810Z,99924.16
2022-10-23T00:41:09.467Z,99935.34
2022-10-23T00:43:55.943Z,99932.56
2022-10-23T00:46:23.961Z,99936.66
2022-10-23T00:48:52.080Z,99941.50
2022-10-23T00:51:19.940Z,99950.97
2022-10-23T00:54:00.962Z,99946.75
2022-10-23T00:56:39.720Z,99953.50
2022-10-23T00:59:07.654Z,99949.16
2022-10-23T01:01:35.488Z,99953.91
2022-10-23T01:04:05.308Z,99958.62
2022-10-23T01:06:58.901Z,99964.16
2022-10-23T01:09:44.979Z,99968.47
2022-10-23T01:12:18.272Z,99969.75
2022-10-23T01:14:52.821Z,99973.59
2022-10-23T01:17:35.882Z,99976.97
2022-10-23T01:20:10.842Z,99969.16
2022-10-23T01:22:46.768Z,99967.81
2022-10-23T01:25:28.239Z,99966.78
2022-10-23T01:27:56.486Z,99982.28
2022-10-23T01:30:24.351Z,99988.19
2022-10-23T01:32:59.474Z,99985.72
2022-10-23T01:35:35.061Z,99992.87
2022-10-23T01:38:11.991Z,99998.50
2022-10-23T01:40:50.703Z,100001.06
2022-10-23T01:43:22.646Z,99998.63
2022-10-23T01:45:57.898Z,100001.88
2022-10-23T01:48:28.510Z,99998.66
2022-10-23T01:50:59.195Z,99996.50
2022-10-23T01:53:29.309Z,99997.22
2022-10-23T01:55:59.307Z,99999.47
2022-10-23T01:58:28.336Z,100006.09
2022-10-23T02:00:58.957Z,100003.13
2022-10-23T02:03:29.767Z,100002.28
2022-10-23T02:05:57.843Z,99993.09
2022-10-23T02:08:25.621Z,99990.22
2022-10-23T02:11:16.160Z,99995.38
2022-10-23T02:13:59.283Z,99999.75
2022-10-23T02:16:39.089Z,99995.75
2022-10-23T02:19:20.031Z,100002.16
2022-10-23T02:21:56.076Z,99993.53
2022-10-23T02:24:41.237Z,99987.19
2022-10-23T02:27:15.682Z,99990.34
2022-10-23T02:29:46.898Z,99991.38
2022-10-23T02:32:15.755Z,99993.75
2022-10-23T02:34:44.056Z,99986.37
2022-10-23T02:37:11.900Z,99982.81
2022-10-23T02:39:40.429Z,99987.94
2022-10-23T02:42:10.338Z,99988.56
2022-10-23T02:45:19.722Z,99975.22
2022-10-23T02:47:55.776Z,99986.03
2022-10-23T02:50:33.346Z,99989.78
2022-10-23T02:53:33.890Z,99994.66
2022-10-23T02:56:03.325Z,99988.00
2022-10-23T02:58:45.011Z,99997.84
2022-10-23T03:01:21.668Z,100002.28
2022-10-23T03:03:53.693Z,100004.31
2022-10-23T03:06:22.711Z,100000.19
2022-10-23T03:08:58.484Z,99999.09
2022-10-23T03:11:26.338Z,100005.97
2022-10-23T03:13:55.606Z,100010.41
2022-10-23T03:16:23.279Z,100021.62
2022-10-23T03:18:51.747Z,100020.69
2022-10-23T03:21:19.790Z,100017.06
2022-10-23T03:23:49.736Z,100027.53
2022-10-23T03:26:17.945Z,100023.25
2022-10-23T03:28:45.964Z,100028.56
2022-10-23T03:31:13.642Z,100036.28
2022-10-23T03:33:41.527Z,100040.94
2022-10-23T03:36:09.827Z,100035.22
2022-10-23T03:38:37.505Z,100035.69
2022-10-23T03:41:05.510Z,100037.84
2022-10-23T03:43:33.543Z,100029.38
2022-10-23T03:46:01.168Z,100031.62
2022-10-23T03:48:28.831Z,100035.88
2022-10-23T03:50:57.973Z,100040.06
2022-10-23T03:53:25.627Z,100043.66
2022-10-23T03:55:53.639Z,100044.44
2022-10-23T03:58:21.507Z,100051.19
2022-10-23T04:00:49.486Z,100051.28
2022-10-23T04:03:17.450Z,100055.28
2022-10-23T04:05:45.108Z,100058.88
2022-10-23T04:08:16.344Z,100056.44
2022-10-23T04:10:49.656Z,100059.09
2022-10-23T04:13:19.749Z,100059.59
2022-10-23T04:15:52.090Z,100067.56
2022-10-23T04:18:20.128Z,100067.00
2022-10-23T04:20:48.724Z,100069.38
2022-10-23T04:23:16.718Z,100068.50
2022-10-23T04:25:45.282Z,100077.31
2022-10-23T04:28:13.450Z,100071.56
2022-10-23T04:30:41.747Z,100057.97
2022-10-23T04:33:10.175Z,100060.44
2022-10-23T04:35:38.029Z,100057.84
2022-10-23T04:38:05.654Z,100052.69
2022-10-23T04:40:33.811Z,100051.06
2022-10-23T04:43:01.483Z,100047.13
2022-10-23T04:45:32.026Z,100037.59
2022-10-23T04:47:59.961Z,100034.66
2022-10-23T04:50:28.816Z,100031.50
2022-10-23T04:53:06.215Z,100038.44
2022-10-23T04:55:34.942Z,100037.59
2022-10-23T04:58:04.566Z,100034.84
2022-10-23T05:00:33.302Z,100032.41
2022-10-23T05:03:01.646Z,100028.34
2022-10-23T05:05:30.947Z,100037.19
2022-10-23T05:07:59.045Z,100038.91
2022-10-23T05:10:26.929Z,100046.56
2022-10-23T05:12:54.854Z,100048.25
2022-10-23T05:15:22.779Z,100060.63
2022-10-23T05:17:54.719Z,100073.56
2022-10-23T05:20:25.527Z,100071.41
2022-10-23T05:22:54.502Z,100071.13
2022-10-23T05:25:24.456Z,100078.34
2022-10-23T05:27:52.508Z,100073.28
2022-10-23T05:30:20.182Z,100074.91
2022-10-23T05:32:48.563Z,100068.19
2022-10-23T05:35:19.975Z,100066.84
2022-10-23T05:37:50.849Z,100072.75
2022-10-23T05:40:18.638Z,100073.56
2022-10-23T05:42:46.756Z,100076.22
2022-10-23T05:45:15.397Z,100087.47
2022-10-23T05:47:46.400Z,100087.44
2022-10-23T05:50:16.245Z,100085.84
2022-10-23T05:52:48.637Z,100075.69
2022-10-23T05:55:16.864Z,100081.56
2022-10-23T05:57:45.750Z,100081.88
2022-10-23T06:00:14.860Z,100094.69
2022-10-23T06:02:42.368Z,100099.78
2022-10-23T06:05:11.249Z,100108.31
2022-10-23T06:07:40.224Z,100100.81
2022-10-23T06:10:08.260Z,100096.81
2022-10-23T06:12:36.685Z,100098.37
2022-10-23T06:15:05.238Z,100109.62
2022-10-23T06:17:35.261Z,100108.81
2022-10-23T06:20:03.706Z,100111.22
2022-10-23T06:22:33.648Z,100112.03
2022-10-23T06:25:02.634Z,100121.66
2022-10-23T06:27:30.959Z,100125.44
2022-10-23T06:29:58.599Z,100120.88
2022-10-23T06:32:26.313Z,100120.03
2022-10-23T06:34:54.650Z,100118.94
2022-10-23T06:37:22.378Z,100124.09
2022-10-23T06:39:50.215Z,100122.22
2022-10-23T06:42:18.343Z,100128.34
2022-10-23T06:44:50.827Z,100135.59
2022-10-23T06:47:21.907Z,100136.69
2022-10-23T06:49:52.776Z,100141.25
2022-10-23T06:52:45.254Z,100149.25
2022-10-23T06:55:08.971Z,100145.22
2022-10-23T06:57:37.737Z,100156.78
2022-10-23T07:00:07.718Z,100161.06
2022-10-23T07:02:37.545Z,100158.91
2022-10-23T07:05:09.955Z,100156.78
2022-10-23T07:07:41.726Z,100158.09
2022-10-23T07:10:10.907Z,100165.87
2022-10-23T07:12:38.999Z,100174.16
2022-10-23T07:15:08.064Z,100169.06
2022-10-23T07:17:35.961Z,100181.12
2022-10-23T07:20:04.188Z,100181.69
2022-10-23T07:22:32.045Z,100186.25
2022-10-23T07:25:01.959Z,100179.84
2022-10-23T07:27:31.036Z,100187.06
2022-10-23T07:29:58.951Z,100184.59
2022-10-23T07:32:29.501Z,100190.53
2022-10-23T07:35:02.298Z,100192.87
2022-10-23T07:37:30.646Z,100191.19
2022-10-23T07:39:58.634Z,100180.19
2022-10-23T07:42:26.400Z,100183.22
2022-10-23T07:44:54.435Z,100182.66
2022-10-23T07:47:22.227Z,100180.47
2022-10-23T07:49:50.559Z,100178.63
2022-10-23T07:52:20.844Z,100176.91
2022-10-23T07:54:51.662Z,100178.00
2022-10-23T07:57:20.304Z,100180.97
2022-10-23T07:59:48.066Z,100185.63
2022-10-23T08:02:16.542Z,100181.28
2022-10-23T08:04:44.813Z,100173.81
2022-10-23T08:07:12.816Z,100182.91
2022-10-23T08:09:40.849Z,100187.62
2022-10-23T08:12:12.496Z,100194.31
2022-10-23T08:14:40.576Z,100189.16
2022-10-23T08:17:08.955Z,100185.91
2022-10-23T08:19:40.186Z,100181.19
2022-10-23T08:22:08.207Z,100188.78
2022-10-23T08:24:36.106Z,100190.03
2022-10-23T08:27:04.361Z,100179.56
2022-10-23T08:29:35.607Z,100184.94
2022-10-23T08:32:03.632Z,100183.03
2022-10-23T08:34:32.235Z,100191.56
2022-10-23T08:37:00.950Z,100187.03
2022-10-23T08:39:28.940Z,100179.75
2022-10-23T08:41:57.120Z,100177.31
2022-10-23T08:44:26.522Z,100185.16
2022-10-23T08:47:12.535Z,100185.16
2022-10-23T08:49:47.432Z,100172.28
2022-10-23T08:52:24.339Z,100180.63
2022-10-23T08:54:59.622Z,100178.00
2022-10-23T08:57:30.378Z,100178.28
2022-10-23T09:00:11.363Z,100183.78
2022-10-23T09:02:43.742Z,100180.75
2022-10-23T09:05:18.537Z,100183.88
2022-10-23T09:08:00.208Z,100189.69
2022-10-23T09:10:40.243Z,100184.25
2022-10-23T09:13:26.462Z,100191.09
2022-10-23T09:16:21.668Z,100180.22
2022-10-23T09:18:49.863Z,100189.84
2022-10-23T09:21:17.810Z,100195.34
2022-10-23T09:23:45.418Z,100185.16
2022-10-23T09:26:16.296Z,100179.94
2022-10-23T09:28:49.799Z,100183.16
2022-10-23T09:31:18.911Z,100179.69
2022-10-23T09:33:57.319Z,100177.34
2022-10-23T09:36:26.195Z,100183.37
2022-10-23T09:38:56.600Z,100183.25
2022-10-23T09:41:38.653Z,100179.47
2022-10-23T09:44:22.728Z,100184.22
2022-10-23T09:46:52.615Z,100187.34
2022-10-23T09:49:24.965Z,100188.84
2022-10-23T09:52:12.931Z,100185.22
2022-10-23T09:54:53.527Z,100179.97
2022-10-23T09:57:45.686Z,100190.50
2022-10-23T10:00:20.027Z,100196.69
2022-10-23T10:02:58.736Z,100204.56
2022-10-23T10:05:30.225Z,100204.78
2022-10-23T10:08:20.970Z,100201.53
2022-10-23T10:10:54.337Z,100201.72
2022-10-23T10:13:52.913Z,100196.56
2022-10-23T10:16:33.533Z,100198.16
2022-10-23T10:19:01.540Z,100195.31
2022-10-23T10:21:43.939Z,100199.84
2022-10-23T10:24:17.874Z,100192.09
2022-10-23T10:26:58.391Z,100195.50
2022-10-23T10:29:58.307Z,100181.16
2022-10-23T10:32:54.989Z,100178.47
2022-10-23T10:35:55.336Z,100155.97
2022-10-23T10:38:24.210Z,100153.63
2022-10-23T10:41:24.291Z,100148.53
2022-10-23T10:44:21.564Z,100147.81
2022-10-23T10:47:02.551Z,100143.88
2022-10-23T10:49:49.250Z,100142.41
2022-10-23T10:52:45.434Z,100143.22
2022-10-23T10:55:23.286Z,100146.41
2022-10-23T10:57:59.286Z,100139.13
2022-10-23T11:00:30.078Z,100139.56
2022-10-23T11:03:01.253Z,100132.97
2022-10-23T11:05:34.841Z,100118.56
2022-10-23T11:08:18.990Z,100122.97
2022-10-23T11:10:49.497Z,100122.72
2022-10-23T11:13:38.062Z,100115.28
2022-10-23T11:16:49.045Z,100109.47
2022-10-23T11:19:27.643Z,100103.16
2022-10-23T11:22:25.104Z,100099.88
2022-10-23T11:25:05.385Z,100098.25
2022-10-23T11:27:52.046Z,100105.47
2022-10-23T11:30:25.955Z,100103.91
2022-10-23T11:33:21.582Z,100091.66
2022-10-23T11:36:11.350Z,100094.97
2022-10-23T11:38:40.889Z,100083.91
2022-10-23T11:41:22.284Z,100090.88
2022-10-23T11:43:58.999Z,100089.38
2022-10-23T11:46:26.883Z,100085.19
2022-10-23T11:48:55.563Z,100087.91
2022-10-23T11:51:36.425Z,100091.75
2022-10-23T11:54:24.540Z,100081.88
2022-10-23T11:57:10.381Z,100078.53
2022-10-23T11:59:48.130Z,100087.53
2022-10-23T12:02:32.611Z,100087.72
2022-10-23T12:05:23.630Z,100081.47
2022-10-23T12:07:54.670Z,100080.31
2022-10-23T12:10:25.600Z,100080.47
2022-10-23T12:13:04.313Z,100077.56
2022-10-23T12:15:35.781Z,100069.91
2022-10-23T12:18:29.504Z,100075.66
2022-10-23T12:20:59.026Z,100068.81
2022-10-23T12:23:54.525Z,100074.34
2022-10-23T12:26:42.584Z,100070.25
2022-10-23T12:29:25.509Z,100071.37
2022-10-23T12:32:11.728Z,100062.22
2022-10-23T12:34:47.164Z,100065.53
2022-10-23T12:37:33.749Z,100047.75
2022-10-23T12:40:01.451Z,100056.47
2022-10-23T12:42:29.729Z,100045.22
2022-10-23T12:45:04.310Z,100044.91
2022-10-23T12:47:33.087Z,100041.31
2022-10-23T12:50:00.951Z,100037.41
2022-10-23T12:52:28.761Z,100037.47
2022-10-23T12:54:56.867Z,100041.75
2022-10-23T12:57:26.711Z,100039.25
2022-10-23T13:00:02.673Z,100033.72
2022-10-23T13:02:32.345Z,100032.12
2022-10-23T13:05:03.773Z,100023.03
2022-10-23T13:07:34.554Z,100017.16
2022-10-23T13:10:04.494Z,100024.59
2022-10-23T13:12:37.535Z,100019.22
2022-10-23T13:15:08.196Z,100023.44
2022-10-23T13:17:53.438Z,100010.16
2022-10-23T13:20:32.885Z,100009.50
2022-10-23T13:23:18.838Z,100009.94
2022-10-23T13:25:59.800Z,100010.75
2022-10-23T13:28:33.896Z,100003.50
2022-10-23T13:31:25.608Z,99999.16
2022-10-23T13:33:59.820Z,99995.44
2022-10-23T13:36:35.064Z,99991.81
2022-10-23T13:39:09.263Z,99992.34
2022-10-23T13:41:40.816Z,99989.81
2022-10-23T13:44:13.143Z,99985.97
2022-10-23T13:46:41.545Z,99980.66
2022-10-23T13:49:10.005Z,99975.91
2022-10-23T13:51:44.591Z,99970.56
2022-10-23T13:54:22.345Z,99968.44
2022-10-23T13:56:51.070Z,99964.59
2022-10-23T13:59:19.685Z,99971.09
2022-10-23T14:01:49.315Z,99965.72
2022-10-23T14:04:18.815Z,99973.19
2022-10-23T14:06:46.726Z,99969.50
2022-10-23T14:09:16.690Z,99969.84
2022-10-23T14:11:44.946Z,99961.81
2022-10-23T14:14:13.033Z,99965.03
2022-10-23T14:16:40.841Z,99957.88
2022-10-23T14:19:09.329Z,99955.50
2022-10-23T14:21:36.891Z,99950.84
2022-10-23T14:24:04.516Z,99947.00
2022-10-23T14:26:32.787Z,99947.50
2022-10-23T14:29:04.214Z,99947.16
2022-10-23T14:31:36.427Z,99938.06
2022-10-23T14:34:03.997Z,99937.06
2022-10-23T14:36:38.871Z,99929.50
2022-10-23T14:39:18.723Z,99927.53
2022-10-23T14:41:47.360Z,99931.03
2022-10-23T14:44:15.243Z,99928.66
2022-10-23T14:46:43.232Z,99926.13
2022-10-23T14:49:10.949Z,99918.66
2022-10-23T14:51:38.791Z,99932.34
2022-10-23T14:54:07.884Z,99918.53
2022-10-23T14:56:37.364Z,99927.44
2022-10-23T14:59:05.176Z,99919.06
2022-10-23T15:01:36.252Z,99920.41
2022-10-23T15:04:04.349Z,99923.78
2022-10-23T15:06:33.621Z,99920.56
2022-10-23T15:09:02.870Z,99917.41
2022-10-23T15:11:30.865Z,99916.59
2022-10-23T15:13:59.810Z,99914.56
2022-10-23T15:16:28.193Z,99916.16
2022-10-23T15:18:56.104Z,99915.06
2022-10-23T15:21:24.643Z,99914.12
2022-10-23T15:23:53.311Z,99919.31
2022-10-23T15:26:21.607Z,99914.19
2022-10-23T15:28:54.278Z,99910.69
2022-10-23T15:31:37.282Z,99910.69
2022-10-23T15:34:08.240Z,99895.06
2022-10-23T15:36:36.459Z,99892.06
2022-10-23T15:39:07.833Z,99884.25
2022-10-23T15:41:37.504Z,99884.09
2022-10-23T15:44:06.665Z,99872.47
2022-10-23T15:46:34.964Z,99875.97
2022-10-23T15:49:05.158Z,99879.81
2022-10-23T15:51:34.248Z,99884.75
2022-10-23T15:54:01.981Z,99885.16
2022-10-23T15:56:29.777Z,99891.63
2022-10-23T15:58:57.858Z,99901.09
2022-10-23T16:01:28.355Z,99898.25
2022-10-23T16:03:56.276Z,99897.31
2022-10-23T16:06:24.085Z,99895.06
2022-10-23T16:11:27.847Z,99896.69
2022-10-23T16:13:56.848Z,99903.66
2022-10-23T16:16:25.532Z,99903.13
2022-10-23T16:18:53.683Z,99899.75
2022-10-23T16:21:23.867Z,99905.50
2022-10-23T16:23:52.928Z,99905.69
2022-10-23T16:26:24.148Z,99906.78
2022-10-23T16:28:57.209Z,99909.00
2022-10-23T16:31:25.759Z,99923.06
2022-10-23T16:36:30.693Z,99918.13
2022-10-23T16:39:02.129Z,99919.44
2022-10-23T16:41:43.585Z,99911.41
2022-10-23T16:44:17.402Z,99919.00
2022-10-23T16:46:46.903Z,99928.97
2022-10-23T16:49:14.559Z,99939.84
2022-10-23T16:51:42.492Z,99939.53
2022-10-23T16:54:10.278Z,99935.38
2022-10-23T16:56:38.020Z,99942.88
2022-10-23T16:59:06.182Z,99945.13
2022-10-23T17:01:34.691Z,99944.50
2022-10-23T17:04:02.620Z,99936.44
2022-10-23T17:06:32.201Z,99944.19
2022-10-23T17:09:01.032Z,99941.81
2022-10-23T17:11:35.587Z,99937.31
2022-10-23T17:14:23.841Z,99934.28
2022-10-23T17:16:53.056Z,99940.63
2022-10-23T17:22:13.082Z,99960.03
2022-10-23T17:24:42.506Z,99958.03
2022-10-23T17:27:10.617Z,99960.09
2022-10-23T17:29:38.642Z,99962.97
2022-10-23T17:32:06.862Z,99952.28
2022-10-23T17:34:36.528Z,99952.75
2022-10-23T17:37:05.951Z,99947.97
2022-10-23T17:39:34.398Z,99947.47
2022-10-23T17:42:02.248Z,99947.97
2022-10-23T17:44:30.126Z,99936.34
2022-10-23T17:46:58.388Z,99938.72
2022-10-23T17:49:26.276Z,99932.81
2022-10-23T17:51:56.660Z,99919.59
2022-10-23T17:54:25.688Z,99933.16
2022-10-23T17:56:55.118Z,99942.84
2022-10-23T17:59:23.346Z,99945.22
2022-10-23T18:01:51.740Z,99934.25
2022-10-23T18:04:21.105Z,99930.75
2022-10-23T18:06:51.756Z,99930.09
2022-10-23T18:09:20.944Z,99927.28
2022-10-23T18:11:51.243Z,99923.56
2022-10-23T18:14:20.422Z,99922.81
2022-10-23T18:16:48.807Z,99919.59
2022-10-23T18:19:19.990Z,99923.75
2022-10-23T18:21:48.746Z,99927.84
2022-10-23T18:24:18.181Z,99918.97
2022-10-23T18:26:46.792Z,99915.78
2022-10-23T18:29:16.825Z,99917.31
2022-10-23T18:31:46.172Z,99917.28
2022-10-23T18:34:15.759Z,99909.31
2022-10-23T18:36:44.063Z,99924.94
2022-10-23T18:39:14.821Z,99916.34
2022-10-23T18:41:44.233Z,99916.28
2022-10-23T18:44:16.780Z,99927.41
2022-10-23T18:46:45.901Z,99941.88
2022-10-23T18:49:14.357Z,99931.44
2022-10-23T18:51:42.321Z,99924.47
2022-10-23T18:54:14.691Z,99924.81
2022-10-23T18:56:43.262Z,99924.34
2022-10-23T18:59:14.084Z,99916.69
2022-10-23T19:01:42.911Z,99917.81
2022-10-23T19:04:12.071Z,99913.84
2022-10-23T19:06:40.007Z,99917.34
2022-10-23T19:09:09.796Z,99923.94
2022-10-23T19:11:41.313Z,99922.84
2022-10-23T19:14:09.363Z,99917.75
2022-10-23T19:16:51.344Z,99917.25
2022-10-23T19:19:23.386Z,99917.56
2022-10-23T19:21:53.234Z,99919.16
2022-10-23T19:24:24.612Z,99910.41
2022-10-23T19:26:52.579Z,99919.94
2022-10-23T19:29:23.475Z,99918.19
2022-10-23T19:31:55.387Z,99920.41
2022-10-23T19:34:24.077Z,99918.50
2022-10-23T19:36:53.783Z,99921.06
2022-10-23T19:39:22.406Z,99923.63
2022-10-23T19:41:50.558Z,99920.75
2022-10-23T19:44:20.994Z,99921.25
2022-10-23T19:46:48.924Z,99919.47
2022-10-23T19:49:17.553Z,99923.78
2022-10-23T19:51:50.947Z,99915.66
2022-10-23T19:54:20.765Z,99917.56
2022-10-23T19:56:49.206Z,99916.34
2022-10-23T19:59:17.304Z,99913.31
2022-10-23T20:01:48.071Z,99912.84
2022-10-23T20:04:18.342Z,99917.31
2022-10-23T20:06:46.891Z,99913.16
2022-10-23T20:09:14.758Z,99916.97
2022-10-23T20:11:43.143Z,99911.09
2022-10-23T20:14:12.564Z,99908.38
2022-10-23T20:16:41.061Z,99922.41
2022-10-23T20:19:11.322Z,99926.03
2022-10-23T20:21:40.256Z,99928.78
2022-10-23T20:24:09.024Z,99933.06
2022-10-23T20:26:45.770Z,99939.75
2022-10-23T20:29:14.065Z,99937.19
2022-10-23T20:31:42.434Z,99934.63
2022-10-23T20:34:11.143Z,99936.91
2022-10-23T20:36:45.458Z,99924.59
2022-10-23T20:39:20.567Z,99931.81
2022-10-23T20:41:48.263Z,99916.81
2022-10-23T20:44:19.474Z,99910.25
2022-10-23T20:46:47.856Z,99908.72
2022-10-23T20:49:16.423Z,99910.44
2022-10-23T20:51:45.111Z,99902.50
2022-10-23T20:54:12.798Z,99900.25
2022-10-23T20:56:40.794Z,99897.88
2022-10-23T20:59:14.245Z,99897.72
2022-10-23T21:01:47.032Z,99899.31
2022-10-23T21:04:17.259Z,99893.09
2022-10-23T21:07:08.462Z,99889.47
2022-10-23T21:09:33.532Z,99892.63
2022-10-23T21:12:01.251Z,99879.44
2022-10-23T21:14:28.879Z,99877.03
2022-10-23T21:16:56.805Z,99879.91
2022-10-23T21:19:24.697Z,99877.06
2022-10-23T21:21:52.423Z,99878.66
2022-10-23T21:24:20.399Z,99880.06
2022-10-23T21:26:48.097Z,99883.25
2022-10-23T21:29:19.891Z,99881.63
2022-10-23T21:31:55.908Z,99871.31
2022-10-23T21:34:24.885Z,99877.84
2022-10-23T21:37:12.389Z,99874.50
2022-10-23T21:39:44.044Z,99873.38
2022-10-23T21:42:13.346Z,99883.09
2022-10-23T21:44:41.155Z,99878.47
2022-10-23T21:47:08.921Z,99886.44
2022-10-23T21:49:36.854Z,99889.59
2022-10-23T21:52:04.742Z,99883.56
2022-10-23T21:54:32.753Z,99886.78
2022-10-23T21:57:00.691Z,99885.94
2022-10-23T21:59:30.259Z,99887.22
2022-10-23T22:01:59.706Z,99885.94
2022-10-23T22:04:27.783Z,99880.22
2022-10-23T22:06:55.400Z,99886.09
2022-10-23T22:09:23.247Z,99877.69
2022-10-23T22:11:52.795Z,99869.22
2022-10-23T22:14:20.915Z,99871.63
2022-10-23T22:16:49.033Z,99866.38
2022-10-23T22:19:18.124Z,99863.84
2022-10-23T22:21:46.214Z,99870.66
2022-10-23T22:24:14.122Z,99866.84
2022-10-23T22:26:44.604Z,99868.75
2022-10-23T22:29:14.513Z,99881.47
2022-10-23T22:31:45.556Z,99878.81
2022-10-23T22:34:47.970Z,99873.84
2022-10-23T22:37:11.454Z,99878.00
2022-10-23T22:39:39.319Z,99877.97
2022-10-23T22:42:07.295Z,99869.56
2022-10-23T22:44:35.301Z,99874.16
2022-10-23T22:47:03.239Z,99874.31
2022-10-23T22:49:30.818Z,99871.97
2022-10-23T22:51:58.719Z,99872.75
2022-10-23T22:54:26.487Z,99879.87
2022-10-23T22:56:54.183Z,99870.34
2022-10-23T22:59:22.232Z,99868.91
2022-10-23T23:01:49.975Z,99872.59
2022-10-23T23:04:36.585Z,99871.63
2022-10-23T23:07:07.879Z,99869.56
2022-10-23T23:09:42.027Z,99871.47
2022-10-23T23:12:12.144Z,99875.44
2022-10-23T23:14:40.203Z,99880.06
2022-10-23T23:17:08.475Z,99866.53
2022-10-23T23:19:36.868Z,99860.34
2022-10-23T23:22:04.689Z,99860.50
2022-10-23T23:24:32.545Z,99862.72
2022-10-23T23:27:00.452Z,99853.94
2022-10-23T23:29:28.211Z,99849.34
2022-10-23T23:31:55.766Z,99854.25
2022-10-23T23:34:23.872Z,99855.06
2022-10-23T23:36:51.459Z,99851.72
2022-10-23T23:39:19.148Z,99851.47
2022-10-23T23:41:47.013Z,99860.69
2022-10-23T23:44:14.818Z,99859.25
2022-10-23T23:46:42.407Z,99856.19
2022-10-23T23:49:10.379Z,99853.38
2022-10-23T23:51:38.019Z,99859.09
2022-10-23T23:54:05.605Z,99855.75
2022-10-23T23:56:33.663Z,99856.66
2022-10-23T23:59:01.503Z,99843.94
